Trenton, Iowa
Current Conditions -  °F | °C
As of 7:55 AM on Saturday 25 Oct 2014 (Local Time) from KMPZ Reporting Station
Haze Haze  
Wind Chill: 47°   Ceiling: 700
Heat Index: 47°   Visibility: 1.7mi
Dew Point: 47°   Wind: 0mph
Humidity: 100%   Direction: NA
Pressure: 30.01"   Gusts: NA
Location:  40.9915°N, 91.5765°W
Report Text: KMPZ 251255Z AUTO 00000KT 1 3/4SM BR VV007 09/09 A3001 RMK AO2 T00850085
Loading
Personal Weather Stations






























Interactive Weather Map
Tropical Storm Tracking
New forecast layout! Learn more

10-Day Weather Forecast

Advertisements
Track Severe Weather on mobile